ARG1804 SABE-SAWC
Flight info
| Callsign | ARG1804 |
|---|---|
| Flight time | 3h 1m |
| Altitude | 38000 |
| Route | PAL9 GBE UT694 IREMO UP664 CRV UW48 BOKUK BOKUK2Q |
| Aircraft | B38M/M-SDE1FGHILORVWXY/HB1 |
Departure
| Time | 2026-04-25 19:33 |
|---|---|
| Airport | Aeroparque Jorge Newbery (SABE) |
Arrival
| Time | 2026-04-25 22:34 |
|---|---|
| Airport | El Calafate - Commander Armando Tola International Airport (SAWC) |
| Time | Latitude | Longitude | Altitude | Speed | Heading |
|---|---|---|---|---|---|
| 2026-04-25 18:53 | -34.55745 | -58.41367 | 29 ft | 0 kts | 34° |
| 2026-04-25 19:18 | -34.55759 | -58.41378 | 29 ft | 4 kts | 21° |
| 2026-04-25 19:19 | -34.55780 | -58.41378 | 29 ft | 4 kts | 320° |
| 2026-04-25 19:19 | -34.55794 | -58.41357 | 29 ft | 1 kts | 303° |
| 2026-04-25 19:19 | -34.55797 | -58.41353 | 29 ft | 0 kts | 303° |
| 2026-04-25 19:23 | -34.55794 | -58.41358 | 29 ft | 2 kts | 303° |
| 2026-04-25 19:23 | -34.55782 | -58.41381 | 29 ft | 5 kts | 303° |
| 2026-04-25 19:24 | -34.55760 | -58.41422 | 29 ft | 7 kts | 303° |
| 2026-04-25 19:24 | -34.55733 | -58.41483 | 29 ft | 9 kts | 293° |
| 2026-04-25 19:24 | -34.55799 | -58.41582 | 29 ft | 10 kts | 148° |
| 2026-04-25 19:25 | -34.55882 | -58.41399 | 29 ft | 15 kts | 117° |
| 2026-04-25 19:25 | -34.55934 | -58.41283 | 29 ft | 17 kts | 123° |
| 2026-04-25 19:25 | -34.56007 | -58.41162 | 29 ft | 19 kts | 127° |
| 2026-04-25 19:26 | -34.56089 | -58.41028 | 30 ft | 21 kts | 126° |
| 2026-04-25 19:26 | -34.56166 | -58.40875 | 29 ft | 22 kts | 113° |
| 2026-04-25 19:26 | -34.56215 | -58.40742 | 29 ft | 16 kts | 122° |
| 2026-04-25 19:26 | -34.56282 | -58.40621 | 29 ft | 18 kts | 123° |
| 2026-04-25 19:27 | -34.56316 | -58.40559 | 29 ft | 1 kts | 123° |
| 2026-04-25 19:27 | -34.56321 | -58.40550 | 29 ft | 3 kts | 125° |
| 2026-04-25 19:27 | -34.56331 | -58.40535 | 29 ft | 0 kts | 130° |
| 2026-04-25 19:28 | -34.56334 | -58.40530 | 29 ft | 2 kts | 130° |
| 2026-04-25 19:28 | -34.56350 | -58.40511 | 29 ft | 5 kts | 136° |
| 2026-04-25 19:29 | -34.56380 | -58.40478 | 29 ft | 7 kts | 139° |
| 2026-04-25 19:29 | -34.56410 | -58.40447 | 29 ft | 0 kts | 139° |
| 2026-04-25 19:29 | -34.56411 | -58.40446 | 29 ft | 0 kts | 139° |
| 2026-04-25 19:30 | -34.56421 | -58.40436 | 29 ft | 3 kts | 139° |
| 2026-04-25 19:30 | -34.56444 | -58.40411 | 29 ft | 6 kts | 138° |
| 2026-04-25 19:30 | -34.56482 | -58.40375 | 29 ft | 8 kts | 149° |
| 2026-04-25 19:31 | -34.56543 | -58.40380 | 28 ft | 11 kts | 216° |
| 2026-04-25 19:31 | -34.56543 | -58.40461 | 27 ft | 5 kts | 304° |
| 2026-04-25 19:31 | -34.56543 | -58.40462 | 27 ft | 0 kts | 304° |
| 2026-04-25 19:32 | -34.56542 | -58.40463 | 27 ft | 1 kts | 304° |
| 2026-04-25 19:32 | -34.56487 | -58.40562 | 28 ft | 47 kts | 304° |
| 2026-04-25 19:32 | -34.56288 | -58.40922 | 29 ft | 104 kts | 304° |
| 2026-04-25 19:33 | -34.55519 | -58.42295 | 191 ft | 180 kts | 304° |
| 2026-04-25 19:33 | -34.54692 | -58.43640 | 693 ft | 214 kts | 306° |
| 2026-04-25 19:33 | -34.53678 | -58.45038 | 1704 ft | 225 kts | 321° |
| 2026-04-25 19:33 | -34.52214 | -58.45766 | 2745 ft | 239 kts | 355° |
| 2026-04-25 19:34 | -34.50598 | -58.45257 | 3757 ft | 250 kts | 32° |
| 2026-04-25 19:34 | -34.49309 | -58.43708 | 4050 ft | 270 kts | 60° |
| 2026-04-25 19:34 | -34.48802 | -58.41522 | 4177 ft | 276 kts | 93° |
| 2026-04-25 19:34 | -34.49282 | -58.39309 | 5073 ft | 272 kts | 121° |
| 2026-04-25 19:35 | -34.50399 | -58.37454 | 6147 ft | 275 kts | 134° |
| 2026-04-25 19:35 | -34.51409 | -58.35491 | 7170 ft | 285 kts | 111° |
| 2026-04-25 19:35 | -34.51896 | -58.33125 | 8136 ft | 294 kts | 105° |
| 2026-04-25 19:35 | -34.52379 | -58.30687 | 9107 ft | 300 kts | 105° |
| 2026-04-25 19:36 | -34.52878 | -58.28202 | 10074 ft | 307 kts | 105° |
| 2026-04-25 19:36 | -34.53511 | -58.25664 | 10692 ft | 323 kts | 118° |
| 2026-04-25 19:36 | -34.54897 | -58.23481 | 11253 ft | 333 kts | 143° |
| 2026-04-25 19:36 | -34.56837 | -58.21873 | 11894 ft | 344 kts | 150° |
| 2026-04-25 19:37 | -34.58870 | -58.20264 | 12683 ft | 351 kts | 150° |
| 2026-04-25 19:37 | -34.60931 | -58.18642 | 13571 ft | 356 kts | 150° |
| 2026-04-25 19:37 | -34.63034 | -58.16993 | 14330 ft | 362 kts | 151° |
| 2026-04-25 19:37 | -34.65170 | -58.15320 | 15024 ft | 368 kts | 151° |
| 2026-04-25 19:38 | -34.67344 | -58.13618 | 15752 ft | 374 kts | 151° |
| 2026-04-25 19:38 | -34.69544 | -58.11895 | 16494 ft | 378 kts | 152° |
| 2026-04-25 19:38 | -34.71749 | -58.10167 | 17217 ft | 383 kts | 152° |
| 2026-04-25 19:38 | -34.74001 | -58.08400 | 17923 ft | 387 kts | 152° |
| 2026-04-25 19:39 | -34.76282 | -58.06611 | 18583 ft | 392 kts | 152° |
| 2026-04-25 19:39 | -34.78580 | -58.04806 | 19173 ft | 396 kts | 152° |
| 2026-04-25 19:39 | -34.80907 | -58.02978 | 19766 ft | 400 kts | 152° |
| 2026-04-25 19:39 | -34.83259 | -58.01128 | 20349 ft | 405 kts | 153° |
| 2026-04-25 19:40 | -34.85641 | -57.99253 | 20852 ft | 411 kts | 153° |
| 2026-04-25 19:40 | -34.88055 | -57.97353 | 21478 ft | 414 kts | 153° |
| 2026-04-25 19:40 | -34.90488 | -57.95435 | 22038 ft | 418 kts | 154° |
| 2026-04-25 19:40 | -34.92962 | -57.93564 | 22596 ft | 417 kts | 161° |
| 2026-04-25 19:41 | -34.95658 | -57.92439 | 23083 ft | 405 kts | 179° |
| 2026-04-25 19:41 | -34.98421 | -57.92344 | 23556 ft | 392 kts | 196° |
| 2026-04-25 19:41 | -35.01008 | -57.93158 | 23967 ft | 380 kts | 211° |
| 2026-04-25 19:41 | -35.01795 | -57.93573 | 24123 ft | 378 kts | 214° |
| 2026-04-25 19:42 | -35.05722 | -57.95961 | 24852 ft | 380 kts | 218° |
| 2026-04-25 19:42 | -35.08049 | -57.97527 | 25318 ft | 381 kts | 219° |
| 2026-04-25 19:42 | -35.10353 | -57.99137 | 25777 ft | 382 kts | 220° |
| 2026-04-25 19:42 | -35.12659 | -58.00777 | 26240 ft | 384 kts | 220° |
| 2026-04-25 19:43 | -35.14970 | -58.02439 | 26693 ft | 386 kts | 221° |
| 2026-04-25 19:43 | -35.17267 | -58.04103 | 27122 ft | 388 kts | 221° |
| 2026-04-25 19:43 | -35.19602 | -58.05798 | 27551 ft | 391 kts | 221° |
| 2026-04-25 19:43 | -35.21941 | -58.07499 | 27990 ft | 393 kts | 222° |
| 2026-04-25 19:44 | -35.24295 | -58.09213 | 28442 ft | 395 kts | 222° |
| 2026-04-25 19:44 | -35.26665 | -58.10939 | 28841 ft | 397 kts | 222° |
| 2026-04-25 19:44 | -35.29046 | -58.12674 | 29289 ft | 399 kts | 222° |
| 2026-04-25 19:44 | -35.31448 | -58.14427 | 29592 ft | 404 kts | 222° |
| 2026-04-25 19:45 | -35.33869 | -58.16194 | 29987 ft | 406 kts | 222° |
| 2026-04-25 19:45 | -35.36308 | -58.17976 | 30319 ft | 408 kts | 222° |
| 2026-04-25 19:45 | -35.38757 | -58.19765 | 30652 ft | 410 kts | 223° |
| 2026-04-25 19:45 | -35.41211 | -58.21561 | 30986 ft | 412 kts | 222° |
| 2026-04-25 19:46 | -35.43680 | -58.23368 | 31292 ft | 414 kts | 222° |
| 2026-04-25 19:46 | -35.46124 | -58.25159 | 31623 ft | 415 kts | 223° |
| 2026-04-25 19:46 | -35.48612 | -58.26983 | 31941 ft | 417 kts | 223° |
| 2026-04-25 19:46 | -35.51111 | -58.28817 | 32260 ft | 419 kts | 223° |
| 2026-04-25 19:47 | -35.53621 | -58.30659 | 32593 ft | 420 kts | 223° |
| 2026-04-25 19:47 | -35.56129 | -58.32502 | 33070 ft | 419 kts | 223° |
| 2026-04-25 19:47 | -35.58629 | -58.34339 | 33472 ft | 418 kts | 223° |
| 2026-04-25 19:47 | -35.61125 | -58.36176 | 33848 ft | 418 kts | 223° |
| 2026-04-25 19:48 | -35.63614 | -58.38009 | 34230 ft | 417 kts | 223° |
| 2026-04-25 19:48 | -35.66101 | -58.39841 | 34561 ft | 416 kts | 223° |
| 2026-04-25 19:48 | -35.68550 | -58.41647 | 34890 ft | 415 kts | 223° |
| 2026-04-25 19:48 | -35.71030 | -58.43476 | 35213 ft | 415 kts | 223° |
| 2026-04-25 19:49 | -35.73508 | -58.45306 | 35536 ft | 414 kts | 223° |
| 2026-04-25 19:49 | -35.74335 | -58.45921 | 35638 ft | 413 kts | 223° |
| 2026-04-25 19:49 | -35.78377 | -58.49029 | 36159 ft | 412 kts | 223° |
| 2026-04-25 19:49 | -35.80802 | -58.50893 | 36425 ft | 412 kts | 223° |
| 2026-04-25 19:50 | -35.85642 | -58.54611 | 37023 ft | 411 kts | 222° |
| 2026-04-25 19:50 | -35.88067 | -58.56477 | 37279 ft | 411 kts | 222° |
| 2026-04-25 19:50 | -35.90490 | -58.58342 | 37548 ft | 410 kts | 222° |
| 2026-04-25 19:51 | -35.92911 | -58.60206 | 37818 ft | 410 kts | 222° |
| 2026-04-25 19:51 | -35.95335 | -58.62075 | 37992 ft | 410 kts | 222° |
| 2026-04-25 19:51 | -35.97762 | -58.63947 | 37980 ft | 409 kts | 222° |
| 2026-04-25 19:52 | -36.02581 | -58.67669 | 37980 ft | 408 kts | 222° |
| 2026-04-25 19:52 | -36.07361 | -58.71364 | 37977 ft | 408 kts | 222° |
| 2026-04-25 19:53 | -36.12161 | -58.75082 | 38016 ft | 408 kts | 222° |
| 2026-04-25 19:53 | -36.16980 | -58.78819 | 37985 ft | 408 kts | 222° |
| 2026-04-25 19:54 | -36.21800 | -58.82564 | 37985 ft | 409 kts | 222° |
| 2026-04-25 19:54 | -36.26612 | -58.86307 | 37978 ft | 408 kts | 222° |
| 2026-04-25 19:55 | -36.31426 | -58.90057 | 37980 ft | 409 kts | 222° |
| 2026-04-25 19:55 | -36.36240 | -58.93813 | 37980 ft | 409 kts | 222° |
| 2026-04-25 19:56 | -36.41054 | -58.97574 | 37995 ft | 409 kts | 221° |
| 2026-04-25 19:56 | -36.45847 | -59.01325 | 37985 ft | 410 kts | 222° |
| 2026-04-25 19:57 | -36.50673 | -59.05106 | 37988 ft | 410 kts | 221° |
| 2026-04-25 19:57 | -36.55499 | -59.08894 | 37984 ft | 410 kts | 221° |
| 2026-04-25 19:58 | -36.60324 | -59.12687 | 37983 ft | 410 kts | 221° |
| 2026-04-25 19:58 | -36.65141 | -59.16478 | 37980 ft | 409 kts | 221° |
| 2026-04-25 19:59 | -36.69967 | -59.20282 | 37984 ft | 410 kts | 221° |
| 2026-04-25 19:59 | -36.74789 | -59.24090 | 37980 ft | 410 kts | 221° |
| 2026-04-25 20:00 | -36.79591 | -59.27887 | 37980 ft | 410 kts | 221° |
| 2026-04-25 20:00 | -36.84409 | -59.31703 | 37982 ft | 410 kts | 221° |
| 2026-04-25 20:01 | -36.91654 | -59.37451 | 37983 ft | 411 kts | 221° |
| 2026-04-25 20:01 | -36.96451 | -59.41264 | 37980 ft | 411 kts | 221° |
| 2026-04-25 20:02 | -37.01271 | -59.45102 | 37981 ft | 411 kts | 221° |
| 2026-04-25 20:02 | -37.06093 | -59.48946 | 37980 ft | 411 kts | 221° |
| 2026-04-25 20:03 | -37.10918 | -59.52798 | 37979 ft | 411 kts | 221° |
| 2026-04-25 20:03 | -37.15734 | -59.56649 | 37979 ft | 410 kts | 221° |
| 2026-04-25 20:04 | -37.20450 | -59.60586 | 38028 ft | 409 kts | 222° |
| 2026-04-25 20:04 | -37.25170 | -59.64580 | 37971 ft | 409 kts | 222° |
| 2026-04-25 20:05 | -37.29890 | -59.68572 | 37973 ft | 409 kts | 222° |
| 2026-04-25 20:05 | -37.34614 | -59.72573 | 37967 ft | 409 kts | 222° |
| 2026-04-25 20:06 | -37.39336 | -59.76579 | 37966 ft | 409 kts | 222° |
| 2026-04-25 20:06 | -37.44028 | -59.80564 | 37963 ft | 409 kts | 222° |
| 2026-04-25 20:07 | -37.48745 | -59.84578 | 37990 ft | 410 kts | 222° |
| 2026-04-25 20:07 | -37.53476 | -59.88610 | 37963 ft | 410 kts | 222° |
| 2026-04-25 20:08 | -37.58202 | -59.92643 | 37959 ft | 410 kts | 222° |
| 2026-04-25 20:08 | -37.62924 | -59.96681 | 37959 ft | 410 kts | 222° |
| 2026-04-25 20:09 | -37.67644 | -60.00722 | 37956 ft | 410 kts | 222° |
| 2026-04-25 20:09 | -37.72364 | -60.04770 | 37956 ft | 410 kts | 222° |
| 2026-04-25 20:10 | -37.76286 | -60.08138 | 37979 ft | 410 kts | 222° |
| 2026-04-25 20:10 | -37.81779 | -60.12863 | 37952 ft | 411 kts | 222° |
| 2026-04-25 20:11 | -37.86501 | -60.16931 | 37946 ft | 411 kts | 222° |
| 2026-04-25 20:11 | -37.91229 | -60.21011 | 37946 ft | 411 kts | 222° |
| 2026-04-25 20:12 | -37.95154 | -60.24403 | 37948 ft | 411 kts | 222° |
| 2026-04-25 20:12 | -37.99116 | -60.27832 | 37945 ft | 411 kts | 222° |
| 2026-04-25 20:13 | -38.04613 | -60.32596 | 37946 ft | 412 kts | 222° |
| 2026-04-25 20:13 | -38.09350 | -60.36708 | 37932 ft | 412 kts | 222° |
| 2026-04-25 20:14 | -38.14081 | -60.40820 | 37930 ft | 412 kts | 222° |
| 2026-04-25 20:14 | -38.18868 | -60.44881 | 37930 ft | 413 kts | 221° |
| 2026-04-25 20:15 | -38.23628 | -60.48914 | 37937 ft | 414 kts | 221° |
| 2026-04-25 20:15 | -38.28423 | -60.52985 | 37922 ft | 414 kts | 221° |
| 2026-04-25 20:16 | -38.33224 | -60.57069 | 37931 ft | 415 kts | 221° |
| 2026-04-25 20:16 | -38.38034 | -60.61167 | 37924 ft | 415 kts | 221° |
| 2026-04-25 20:17 | -38.42844 | -60.65270 | 37916 ft | 415 kts | 221° |
| 2026-04-25 20:17 | -38.47643 | -60.69372 | 37915 ft | 415 kts | 221° |
| 2026-04-25 20:18 | -38.52412 | -60.73455 | 37919 ft | 415 kts | 221° |
| 2026-04-25 20:18 | -38.57209 | -60.77567 | 37937 ft | 416 kts | 220° |
| 2026-04-25 20:19 | -38.62021 | -60.81700 | 37916 ft | 417 kts | 220° |
| 2026-04-25 20:19 | -38.66844 | -60.85849 | 37913 ft | 417 kts | 220° |
| 2026-04-25 20:20 | -38.71658 | -60.89997 | 37909 ft | 417 kts | 221° |
| 2026-04-25 20:20 | -38.76452 | -60.94135 | 37909 ft | 417 kts | 221° |
| 2026-04-25 20:21 | -38.81262 | -60.98294 | 37909 ft | 417 kts | 221° |
| 2026-04-25 20:21 | -38.86078 | -61.02464 | 37907 ft | 418 kts | 220° |
| 2026-04-25 20:22 | -38.90083 | -61.05937 | 37907 ft | 418 kts | 220° |
| 2026-04-25 20:22 | -38.95686 | -61.10806 | 37903 ft | 418 kts | 220° |
| 2026-04-25 20:23 | -39.00508 | -61.15001 | 37900 ft | 418 kts | 220° |
| 2026-04-25 20:23 | -39.05332 | -61.19207 | 37900 ft | 418 kts | 220° |
| 2026-04-25 20:24 | -39.10152 | -61.23415 | 37925 ft | 418 kts | 220° |
| 2026-04-25 20:24 | -39.14963 | -61.27624 | 37902 ft | 418 kts | 220° |
| 2026-04-25 20:25 | -39.19748 | -61.31817 | 37901 ft | 418 kts | 220° |
| 2026-04-25 20:25 | -39.24562 | -61.36042 | 37906 ft | 418 kts | 220° |
| 2026-04-25 20:26 | -39.29371 | -61.40269 | 37905 ft | 418 kts | 220° |
| 2026-04-25 20:26 | -39.34187 | -61.44510 | 37898 ft | 418 kts | 220° |
| 2026-04-25 20:27 | -39.38984 | -61.48742 | 37893 ft | 417 kts | 220° |
| 2026-04-25 20:27 | -39.43781 | -61.52981 | 37907 ft | 417 kts | 220° |
| 2026-04-25 20:28 | -39.48581 | -61.57229 | 37899 ft | 417 kts | 220° |
| 2026-04-25 20:28 | -39.53337 | -61.61446 | 37901 ft | 417 kts | 220° |
| 2026-04-25 20:29 | -39.58125 | -61.65698 | 37899 ft | 417 kts | 220° |
| 2026-04-25 20:29 | -39.62915 | -61.69959 | 37899 ft | 417 kts | 220° |
| 2026-04-25 20:30 | -39.67707 | -61.74230 | 37904 ft | 417 kts | 220° |
| 2026-04-25 20:30 | -39.72490 | -61.78499 | 37911 ft | 417 kts | 220° |
| 2026-04-25 20:31 | -39.77274 | -61.82775 | 37911 ft | 417 kts | 220° |
| 2026-04-25 20:31 | -39.82024 | -61.87028 | 37904 ft | 417 kts | 220° |
| 2026-04-25 20:32 | -39.86784 | -61.91338 | 37902 ft | 415 kts | 224° |
| 2026-04-25 20:32 | -39.91178 | -61.96145 | 37901 ft | 412 kts | 225° |
| 2026-04-25 20:33 | -39.95603 | -62.00898 | 37908 ft | 412 kts | 225° |
| 2026-04-25 20:33 | -39.99290 | -62.04844 | 37909 ft | 412 kts | 225° |
| 2026-04-25 20:34 | -40.04478 | -62.10405 | 37912 ft | 412 kts | 225° |
| 2026-04-25 20:34 | -40.08908 | -62.15160 | 37911 ft | 412 kts | 225° |
| 2026-04-25 20:35 | -40.13317 | -62.19902 | 37911 ft | 412 kts | 225° |
| 2026-04-25 20:35 | -40.17747 | -62.24673 | 37923 ft | 412 kts | 224° |
| 2026-04-25 20:36 | -40.22168 | -62.29446 | 37914 ft | 412 kts | 224° |
| 2026-04-25 20:36 | -40.26586 | -62.34222 | 37910 ft | 412 kts | 224° |
| 2026-04-25 20:37 | -40.31003 | -62.39005 | 37914 ft | 412 kts | 224° |
| 2026-04-25 20:37 | -40.35417 | -62.43794 | 37912 ft | 412 kts | 224° |
| 2026-04-25 20:38 | -40.39802 | -62.48559 | 37912 ft | 412 kts | 225° |
| 2026-04-25 20:38 | -40.44215 | -62.53364 | 37933 ft | 412 kts | 224° |
| 2026-04-25 20:39 | -40.48628 | -62.58177 | 37914 ft | 411 kts | 224° |
| 2026-04-25 20:39 | -40.52290 | -62.62177 | 37914 ft | 412 kts | 224° |
| 2026-04-25 20:40 | -40.57412 | -62.67782 | 37903 ft | 412 kts | 225° |
| 2026-04-25 20:40 | -40.61812 | -62.72606 | 37903 ft | 412 kts | 225° |
| 2026-04-25 20:41 | -40.66211 | -62.77438 | 37899 ft | 411 kts | 225° |
| 2026-04-25 20:41 | -40.70615 | -62.82283 | 37914 ft | 412 kts | 225° |
| 2026-04-25 20:42 | -40.75035 | -62.87156 | 37899 ft | 414 kts | 224° |
| 2026-04-25 20:42 | -40.79452 | -62.92032 | 37911 ft | 414 kts | 224° |
| 2026-04-25 20:43 | -40.83870 | -62.96918 | 37912 ft | 414 kts | 224° |
| 2026-04-25 20:43 | -40.88434 | -63.01522 | 37920 ft | 417 kts | 219° |
| 2026-04-25 20:44 | -40.93230 | -63.05860 | 37908 ft | 417 kts | 220° |
| 2026-04-25 20:44 | -40.98002 | -63.10253 | 37913 ft | 418 kts | 220° |
| 2026-04-25 20:45 | -41.02786 | -63.14675 | 37912 ft | 419 kts | 220° |
| 2026-04-25 20:45 | -41.07567 | -63.19105 | 37899 ft | 419 kts | 220° |
| 2026-04-25 20:46 | -41.12349 | -63.23543 | 37886 ft | 419 kts | 220° |
| 2026-04-25 20:46 | -41.17101 | -63.27960 | 37881 ft | 419 kts | 220° |
| 2026-04-25 20:47 | -41.21884 | -63.32416 | 37890 ft | 420 kts | 220° |
| 2026-04-25 20:47 | -41.26676 | -63.36886 | 37879 ft | 421 kts | 220° |
| 2026-04-25 20:48 | -41.31463 | -63.41361 | 37870 ft | 421 kts | 220° |
| 2026-04-25 20:48 | -41.36250 | -63.45844 | 37876 ft | 419 kts | 220° |
| 2026-04-25 20:49 | -41.40984 | -63.50285 | 37870 ft | 419 kts | 220° |
| 2026-04-25 20:49 | -41.45755 | -63.54770 | 37889 ft | 419 kts | 220° |
| 2026-04-25 20:50 | -41.50529 | -63.59266 | 37868 ft | 420 kts | 220° |
| 2026-04-25 20:50 | -41.55301 | -63.63768 | 37862 ft | 420 kts | 220° |
| 2026-04-25 20:51 | -41.60074 | -63.68278 | 37861 ft | 420 kts | 220° |
| 2026-04-25 20:51 | -41.64817 | -63.72770 | 37861 ft | 420 kts | 220° |
| 2026-04-25 20:52 | -41.68788 | -63.76536 | 37860 ft | 420 kts | 220° |
| 2026-04-25 20:52 | -41.74354 | -63.81825 | 37858 ft | 420 kts | 219° |
| 2026-04-25 20:53 | -41.79122 | -63.86365 | 37848 ft | 420 kts | 219° |
| 2026-04-25 20:53 | -41.83888 | -63.90911 | 37842 ft | 420 kts | 219° |
| 2026-04-25 20:54 | -41.88656 | -63.95468 | 37840 ft | 420 kts | 220° |
| 2026-04-25 20:54 | -41.93390 | -64.00001 | 37834 ft | 420 kts | 220° |
| 2026-04-25 20:55 | -41.98162 | -64.04578 | 37851 ft | 420 kts | 219° |
| 2026-04-25 20:55 | -42.02907 | -64.09140 | 37830 ft | 419 kts | 219° |
| 2026-04-25 20:56 | -42.07650 | -64.13706 | 37829 ft | 419 kts | 219° |
| 2026-04-25 20:56 | -42.12390 | -64.18279 | 37826 ft | 419 kts | 219° |
| 2026-04-25 20:57 | -42.17101 | -64.22832 | 37824 ft | 419 kts | 219° |
| 2026-04-25 20:57 | -42.21596 | -64.27184 | 37825 ft | 417 kts | 219° |
| 2026-04-25 20:58 | -42.26297 | -64.31744 | 37810 ft | 416 kts | 219° |
| 2026-04-25 20:58 | -42.31001 | -64.36316 | 37809 ft | 416 kts | 219° |
| 2026-04-25 20:59 | -42.35706 | -64.40898 | 37799 ft | 416 kts | 219° |
| 2026-04-25 20:59 | -42.40409 | -64.45486 | 37798 ft | 417 kts | 219° |
| 2026-04-25 21:00 | -42.43531 | -64.48536 | 37795 ft | 418 kts | 219° |
| 2026-04-25 21:01 | -42.51377 | -64.56219 | 37789 ft | 416 kts | 219° |
| 2026-04-25 21:01 | -42.56052 | -64.60808 | 37785 ft | 416 kts | 219° |
| 2026-04-25 21:02 | -42.60750 | -64.65429 | 37769 ft | 417 kts | 219° |
| 2026-04-25 21:02 | -42.65447 | -64.70057 | 37771 ft | 417 kts | 219° |
| 2026-04-25 21:03 | -42.70109 | -64.74660 | 37773 ft | 417 kts | 219° |
| 2026-04-25 21:03 | -42.74798 | -64.79299 | 37771 ft | 416 kts | 219° |
| 2026-04-25 21:04 | -42.79477 | -64.83936 | 37757 ft | 416 kts | 219° |
| 2026-04-25 21:04 | -42.84154 | -64.88581 | 37756 ft | 416 kts | 219° |
| 2026-04-25 21:05 | -42.88839 | -64.93241 | 37760 ft | 416 kts | 219° |
| 2026-04-25 21:05 | -42.93514 | -64.97902 | 37761 ft | 416 kts | 219° |
| 2026-04-25 21:06 | -42.98163 | -65.02545 | 37793 ft | 416 kts | 219° |
| 2026-04-25 21:06 | -43.02841 | -65.07224 | 37793 ft | 417 kts | 219° |
| 2026-04-25 21:07 | -43.07528 | -65.11920 | 37784 ft | 417 kts | 219° |
| 2026-04-25 21:07 | -43.12214 | -65.16625 | 37797 ft | 417 kts | 219° |
| 2026-04-25 21:08 | -43.16870 | -65.21308 | 37802 ft | 417 kts | 219° |
| 2026-04-25 21:08 | -43.21668 | -65.25794 | 37829 ft | 419 kts | 213° |
| 2026-04-25 21:09 | -43.29290 | -65.31832 | 37803 ft | 423 kts | 213° |
| 2026-04-25 21:09 | -43.34403 | -65.35864 | 37789 ft | 423 kts | 213° |
| 2026-04-25 21:10 | -43.39517 | -65.39903 | 37774 ft | 423 kts | 213° |
| 2026-04-25 21:10 | -43.44588 | -65.43917 | 37755 ft | 421 kts | 213° |
| 2026-04-25 21:11 | -43.49683 | -65.47958 | 37739 ft | 424 kts | 213° |
| 2026-04-25 21:11 | -43.54800 | -65.52023 | 37726 ft | 425 kts | 213° |
| 2026-04-25 21:12 | -43.59913 | -65.56094 | 37719 ft | 424 kts | 213° |
| 2026-04-25 21:12 | -43.64165 | -65.59485 | 37747 ft | 424 kts | 213° |
| 2026-04-25 21:13 | -43.70123 | -65.64247 | 37723 ft | 422 kts | 213° |
| 2026-04-25 21:13 | -43.75226 | -65.68334 | 37707 ft | 425 kts | 213° |
| 2026-04-25 21:14 | -43.80341 | -65.72439 | 37702 ft | 425 kts | 213° |
| 2026-04-25 21:14 | -43.85426 | -65.76528 | 37697 ft | 425 kts | 213° |
| 2026-04-25 21:15 | -43.90523 | -65.80635 | 37704 ft | 420 kts | 213° |
| 2026-04-25 21:15 | -43.95566 | -65.84704 | 37696 ft | 418 kts | 213° |
| 2026-04-25 21:16 | -44.00610 | -65.88786 | 37683 ft | 420 kts | 213° |
| 2026-04-25 21:16 | -44.05656 | -65.92878 | 37675 ft | 420 kts | 213° |
| 2026-04-25 21:17 | -44.10676 | -65.96956 | 37676 ft | 420 kts | 213° |
| 2026-04-25 21:17 | -44.15703 | -66.01050 | 37671 ft | 416 kts | 214° |
| 2026-04-25 21:18 | -44.20711 | -66.05134 | 37671 ft | 417 kts | 214° |
| 2026-04-25 21:18 | -44.25716 | -66.09226 | 37667 ft | 416 kts | 214° |
| 2026-04-25 21:19 | -44.30691 | -66.13299 | 37668 ft | 417 kts | 214° |
| 2026-04-25 21:19 | -44.35688 | -66.17400 | 37680 ft | 416 kts | 214° |
| 2026-04-25 21:20 | -44.39864 | -66.20833 | 37666 ft | 415 kts | 214° |
| 2026-04-25 21:20 | -44.45642 | -66.25593 | 37678 ft | 415 kts | 214° |
| 2026-04-25 21:21 | -44.50624 | -66.29706 | 37671 ft | 415 kts | 214° |
| 2026-04-25 21:21 | -44.55610 | -66.33831 | 37673 ft | 416 kts | 214° |
| 2026-04-25 21:22 | -44.60595 | -66.37962 | 37677 ft | 416 kts | 214° |
| 2026-04-25 21:22 | -44.65574 | -66.42097 | 37671 ft | 415 kts | 214° |
| 2026-04-25 21:23 | -44.70545 | -66.46233 | 37688 ft | 416 kts | 214° |
| 2026-04-25 21:23 | -44.75496 | -66.50362 | 37692 ft | 416 kts | 214° |
| 2026-04-25 21:24 | -44.80474 | -66.54522 | 37686 ft | 416 kts | 214° |
| 2026-04-25 21:24 | -44.85451 | -66.58688 | 37672 ft | 417 kts | 214° |
| 2026-04-25 21:25 | -44.90461 | -66.62891 | 37683 ft | 419 kts | 214° |
| 2026-04-25 21:25 | -44.95471 | -66.67101 | 37708 ft | 419 kts | 214° |
| 2026-04-25 21:26 | -45.00487 | -66.71328 | 37694 ft | 420 kts | 214° |
| 2026-04-25 21:26 | -45.05504 | -66.75563 | 37689 ft | 420 kts | 214° |
| 2026-04-25 21:27 | -45.10525 | -66.79808 | 37690 ft | 420 kts | 214° |
| 2026-04-25 21:27 | -45.15544 | -66.84061 | 37694 ft | 420 kts | 214° |
| 2026-04-25 21:28 | -45.20525 | -66.88291 | 37723 ft | 420 kts | 214° |
| 2026-04-25 21:28 | -45.25548 | -66.92565 | 37703 ft | 421 kts | 214° |
| 2026-04-25 21:29 | -45.30569 | -66.96846 | 37703 ft | 421 kts | 214° |
| 2026-04-25 21:29 | -45.35594 | -67.01140 | 37711 ft | 421 kts | 214° |
| 2026-04-25 21:30 | -45.40610 | -67.05436 | 37713 ft | 421 kts | 214° |
| 2026-04-25 21:30 | -45.44785 | -67.09018 | 37721 ft | 421 kts | 214° |
| 2026-04-25 21:31 | -45.50625 | -67.14038 | 37722 ft | 422 kts | 214° |
| 2026-04-25 21:31 | -45.55651 | -67.18369 | 37727 ft | 422 kts | 214° |
| 2026-04-25 21:32 | -45.60673 | -67.22705 | 37729 ft | 421 kts | 214° |
| 2026-04-25 21:32 | -45.65653 | -67.27015 | 37739 ft | 421 kts | 214° |
| 2026-04-25 21:33 | -45.70663 | -67.31359 | 37745 ft | 421 kts | 214° |
| 2026-04-25 21:33 | -45.75676 | -67.35713 | 37748 ft | 421 kts | 214° |
| 2026-04-25 21:34 | -45.80594 | -67.40295 | 37750 ft | 421 kts | 216° |
| 2026-04-25 21:34 | -45.85453 | -67.44871 | 37745 ft | 419 kts | 215° |
| 2026-04-25 21:35 | -45.90329 | -67.49464 | 37748 ft | 419 kts | 215° |
| 2026-04-25 21:35 | -45.95212 | -67.54071 | 37779 ft | 419 kts | 215° |
| 2026-04-25 21:36 | -46.00087 | -67.58681 | 37790 ft | 420 kts | 215° |
| 2026-04-25 21:36 | -46.04973 | -67.63312 | 37794 ft | 421 kts | 215° |
| 2026-04-25 21:37 | -46.09031 | -67.67166 | 37787 ft | 419 kts | 215° |
| 2026-04-25 21:37 | -46.14688 | -67.72549 | 37803 ft | 419 kts | 215° |
| 2026-04-25 21:38 | -46.19555 | -67.77192 | 37804 ft | 419 kts | 215° |
| 2026-04-25 21:38 | -46.24415 | -67.81837 | 37844 ft | 419 kts | 215° |
| 2026-04-25 21:39 | -46.29286 | -67.86504 | 37823 ft | 420 kts | 215° |
| 2026-04-25 21:39 | -46.34143 | -67.91166 | 37822 ft | 418 kts | 215° |
| 2026-04-25 21:40 | -46.38954 | -67.95796 | 37827 ft | 418 kts | 215° |
| 2026-04-25 21:40 | -46.43805 | -68.00472 | 37835 ft | 418 kts | 215° |
| 2026-04-25 21:41 | -46.48642 | -68.05147 | 37837 ft | 418 kts | 215° |
| 2026-04-25 21:41 | -46.53485 | -68.09836 | 37856 ft | 419 kts | 215° |
| 2026-04-25 21:42 | -46.58315 | -68.14524 | 37848 ft | 416 kts | 214° |
| 2026-04-25 21:42 | -46.63103 | -68.19181 | 37860 ft | 416 kts | 214° |
| 2026-04-25 21:43 | -46.67916 | -68.23872 | 37864 ft | 416 kts | 214° |
| 2026-04-25 21:43 | -46.72717 | -68.28562 | 37871 ft | 416 kts | 214° |
| 2026-04-25 21:44 | -46.77522 | -68.33266 | 37868 ft | 416 kts | 214° |
| 2026-04-25 21:45 | -46.84711 | -68.40323 | 37874 ft | 414 kts | 214° |
| 2026-04-25 21:45 | -46.89486 | -68.45024 | 37884 ft | 414 kts | 214° |
| 2026-04-25 21:46 | -46.94228 | -68.49702 | 37886 ft | 414 kts | 214° |
| 2026-04-25 21:46 | -46.99005 | -68.54425 | 37894 ft | 414 kts | 214° |
| 2026-04-25 21:47 | -47.03783 | -68.59158 | 37868 ft | 414 kts | 214° |
| 2026-04-25 21:47 | -47.08546 | -68.63888 | 37898 ft | 413 kts | 214° |
| 2026-04-25 21:48 | -47.13307 | -68.68627 | 37904 ft | 414 kts | 214° |
| 2026-04-25 21:48 | -47.18040 | -68.73347 | 37902 ft | 414 kts | 214° |
| 2026-04-25 21:49 | -47.22802 | -68.78107 | 37907 ft | 413 kts | 214° |
| 2026-04-25 21:49 | -47.27560 | -68.82874 | 37910 ft | 413 kts | 214° |
| 2026-04-25 21:50 | -47.31510 | -68.86838 | 37924 ft | 409 kts | 214° |
| 2026-04-25 21:50 | -47.36198 | -68.91553 | 37927 ft | 407 kts | 214° |
| 2026-04-25 21:51 | -47.41643 | -68.97044 | 37914 ft | 407 kts | 214° |
| 2026-04-25 21:51 | -47.45566 | -69.01007 | 37924 ft | 408 kts | 214° |
| 2026-04-25 21:52 | -47.50248 | -69.05748 | 37930 ft | 408 kts | 214° |
| 2026-04-25 21:52 | -47.54901 | -69.10469 | 37930 ft | 408 kts | 214° |
| 2026-04-25 21:53 | -47.59584 | -69.15232 | 37941 ft | 408 kts | 214° |
| 2026-04-25 21:53 | -47.64272 | -69.20010 | 37949 ft | 410 kts | 214° |
| 2026-04-25 21:54 | -47.68977 | -69.24816 | 37952 ft | 410 kts | 214° |
| 2026-04-25 21:54 | -47.73641 | -69.29591 | 37952 ft | 410 kts | 214° |
| 2026-04-25 21:55 | -47.78333 | -69.34405 | 37955 ft | 410 kts | 214° |
| 2026-04-25 21:55 | -47.83021 | -69.39225 | 37951 ft | 408 kts | 214° |
| 2026-04-25 21:56 | -47.87691 | -69.44038 | 37963 ft | 408 kts | 214° |
| 2026-04-25 21:56 | -47.92356 | -69.48857 | 37979 ft | 408 kts | 214° |
| 2026-04-25 21:57 | -47.96993 | -69.53657 | 37968 ft | 408 kts | 214° |
| 2026-04-25 21:57 | -48.01665 | -69.58504 | 37980 ft | 408 kts | 214° |
| 2026-04-25 21:58 | -48.06323 | -69.63348 | 37972 ft | 406 kts | 213° |
| 2026-04-25 21:58 | -48.10953 | -69.68174 | 37990 ft | 405 kts | 213° |
| 2026-04-25 21:59 | -48.15581 | -69.73008 | 37981 ft | 405 kts | 213° |
| 2026-04-25 21:59 | -48.20194 | -69.77836 | 37998 ft | 408 kts | 213° |
| 2026-04-25 22:00 | -48.27186 | -69.85173 | 37994 ft | 408 kts | 213° |
| 2026-04-25 22:00 | -48.31834 | -69.90064 | 37996 ft | 407 kts | 213° |
| 2026-04-25 22:01 | -48.36459 | -69.94940 | 38003 ft | 406 kts | 213° |
| 2026-04-25 22:01 | -48.40301 | -69.98999 | 38009 ft | 406 kts | 213° |
| 2026-04-25 22:02 | -48.45712 | -70.04713 | 38021 ft | 407 kts | 213° |
| 2026-04-25 22:02 | -48.48037 | -70.07151 | 37898 ft | 404 kts | 213° |
| 2026-04-25 22:02 | -48.50310 | -70.09535 | 37285 ft | 402 kts | 213° |
| 2026-04-25 22:03 | -48.52588 | -70.11928 | 36885 ft | 395 kts | 213° |
| 2026-04-25 22:03 | -48.54819 | -70.14274 | 36560 ft | 387 kts | 212° |
| 2026-04-25 22:03 | -48.57007 | -70.16575 | 36092 ft | 382 kts | 212° |
| 2026-04-25 22:03 | -48.59182 | -70.18867 | 35550 ft | 379 kts | 212° |
| 2026-04-25 22:04 | -48.61349 | -70.21151 | 35017 ft | 378 kts | 212° |
| 2026-04-25 22:04 | -48.63494 | -70.23416 | 34502 ft | 376 kts | 211° |
| 2026-04-25 22:04 | -48.65634 | -70.25677 | 34016 ft | 373 kts | 211° |
| 2026-04-25 22:04 | -48.67756 | -70.27924 | 33424 ft | 371 kts | 211° |
| 2026-04-25 22:05 | -48.69863 | -70.30155 | 32912 ft | 367 kts | 211° |
| 2026-04-25 22:05 | -48.71917 | -70.32333 | 32468 ft | 363 kts | 211° |
| 2026-04-25 22:05 | -48.73999 | -70.34544 | 31999 ft | 359 kts | 211° |
| 2026-04-25 22:05 | -48.76038 | -70.36709 | 31534 ft | 356 kts | 211° |
| 2026-04-25 22:06 | -48.78026 | -70.38822 | 31093 ft | 353 kts | 211° |
| 2026-04-25 22:06 | -48.80033 | -70.40958 | 30572 ft | 351 kts | 211° |
| 2026-04-25 22:06 | -48.82020 | -70.43077 | 30134 ft | 346 kts | 210° |
| 2026-04-25 22:06 | -48.83973 | -70.45158 | 29679 ft | 341 kts | 210° |
| 2026-04-25 22:07 | -48.85901 | -70.47215 | 29248 ft | 336 kts | 210° |
| 2026-04-25 22:07 | -48.87187 | -70.48588 | 28986 ft | 332 kts | 210° |
| 2026-04-25 22:07 | -48.89660 | -70.51231 | 28472 ft | 324 kts | 209° |
| 2026-04-25 22:07 | -48.91492 | -70.53191 | 28114 ft | 319 kts | 209° |
| 2026-04-25 22:08 | -48.93294 | -70.55122 | 27746 ft | 314 kts | 209° |
| 2026-04-25 22:08 | -48.95071 | -70.57027 | 27382 ft | 310 kts | 209° |
| 2026-04-25 22:08 | -48.96822 | -70.58905 | 27032 ft | 306 kts | 209° |
| 2026-04-25 22:08 | -48.98529 | -70.60738 | 26704 ft | 302 kts | 209° |
| 2026-04-25 22:09 | -49.00235 | -70.62572 | 26387 ft | 298 kts | 209° |
| 2026-04-25 22:09 | -49.01918 | -70.64383 | 26050 ft | 295 kts | 210° |
| 2026-04-25 22:09 | -49.03601 | -70.66194 | 25714 ft | 298 kts | 210° |
| 2026-04-25 22:09 | -49.05308 | -70.68033 | 25384 ft | 302 kts | 210° |
| 2026-04-25 22:10 | -49.07031 | -70.69892 | 25009 ft | 304 kts | 209° |
| 2026-04-25 22:10 | -49.08746 | -70.71743 | 24697 ft | 300 kts | 209° |
| 2026-04-25 22:10 | -49.10422 | -70.73554 | 24393 ft | 297 kts | 209° |
| 2026-04-25 22:10 | -49.12102 | -70.75371 | 24090 ft | 293 kts | 209° |
| 2026-04-25 22:11 | -49.13755 | -70.77159 | 23780 ft | 290 kts | 210° |
| 2026-04-25 22:11 | -49.15389 | -70.78928 | 23445 ft | 287 kts | 210° |
| 2026-04-25 22:11 | -49.17010 | -70.80685 | 23054 ft | 284 kts | 210° |
| 2026-04-25 22:11 | -49.18614 | -70.82426 | 22712 ft | 280 kts | 209° |
| 2026-04-25 22:12 | -49.20190 | -70.84137 | 22445 ft | 277 kts | 209° |
| 2026-04-25 22:12 | -49.21785 | -70.85870 | 22161 ft | 284 kts | 210° |
| 2026-04-25 22:12 | -49.23388 | -70.87612 | 21867 ft | 289 kts | 210° |
| 2026-04-25 22:12 | -49.24496 | -70.88819 | 21661 ft | 289 kts | 210° |
| 2026-04-25 22:13 | -49.26669 | -70.91185 | 21268 ft | 289 kts | 210° |
| 2026-04-25 22:13 | -49.28305 | -70.92969 | 20950 ft | 288 kts | 210° |
| 2026-04-25 22:13 | -49.29940 | -70.94753 | 20664 ft | 289 kts | 210° |
| 2026-04-25 22:13 | -49.31580 | -70.96543 | 20358 ft | 289 kts | 210° |
| 2026-04-25 22:14 | -49.33213 | -70.98329 | 20019 ft | 288 kts | 210° |
| 2026-04-25 22:14 | -49.34837 | -71.00106 | 19737 ft | 285 kts | 210° |
| 2026-04-25 22:14 | -49.36429 | -71.01847 | 19461 ft | 284 kts | 210° |
| 2026-04-25 22:14 | -49.38034 | -71.03607 | 19175 ft | 284 kts | 210° |
| 2026-04-25 22:15 | -49.39642 | -71.05369 | 18889 ft | 283 kts | 210° |
| 2026-04-25 22:15 | -49.41244 | -71.07128 | 18590 ft | 283 kts | 210° |
| 2026-04-25 22:15 | -49.42845 | -71.08886 | 18290 ft | 282 kts | 210° |
| 2026-04-25 22:16 | -49.46027 | -71.12386 | 17656 ft | 280 kts | 210° |
| 2026-04-25 22:16 | -49.47614 | -71.14133 | 17359 ft | 280 kts | 211° |
| 2026-04-25 22:16 | -49.49197 | -71.15878 | 17066 ft | 279 kts | 211° |
| 2026-04-25 22:16 | -49.50772 | -71.17614 | 16776 ft | 278 kts | 211° |
| 2026-04-25 22:17 | -49.52321 | -71.19324 | 16488 ft | 277 kts | 211° |
| 2026-04-25 22:17 | -49.53887 | -71.21054 | 16198 ft | 277 kts | 211° |
| 2026-04-25 22:17 | -49.55448 | -71.22779 | 15918 ft | 276 kts | 211° |
| 2026-04-25 22:17 | -49.57005 | -71.24501 | 15632 ft | 275 kts | 211° |
| 2026-04-25 22:18 | -49.58565 | -71.26228 | 15345 ft | 275 kts | 212° |
| 2026-04-25 22:18 | -49.60111 | -71.27941 | 15041 ft | 273 kts | 211° |
| 2026-04-25 22:18 | -49.61673 | -71.29586 | 14746 ft | 269 kts | 205° |
| 2026-04-25 22:18 | -49.63357 | -71.30823 | 14428 ft | 267 kts | 202° |
| 2026-04-25 22:19 | -49.65030 | -71.32068 | 14158 ft | 266 kts | 203° |
| 2026-04-25 22:19 | -49.66688 | -71.33324 | 13899 ft | 265 kts | 203° |
| 2026-04-25 22:19 | -49.68333 | -71.34585 | 13597 ft | 264 kts | 204° |
| 2026-04-25 22:19 | -49.69974 | -71.35852 | 13304 ft | 263 kts | 204° |
| 2026-04-25 22:20 | -49.71590 | -71.37105 | 13014 ft | 262 kts | 204° |
| 2026-04-25 22:20 | -49.73218 | -71.38372 | 12735 ft | 261 kts | 204° |
| 2026-04-25 22:20 | -49.74841 | -71.39638 | 12469 ft | 261 kts | 204° |
| 2026-04-25 22:20 | -49.76458 | -71.40901 | 12188 ft | 260 kts | 204° |
| 2026-04-25 22:21 | -49.78069 | -71.42160 | 11918 ft | 259 kts | 204° |
| 2026-04-25 22:21 | -49.79675 | -71.43416 | 11708 ft | 258 kts | 204° |
| 2026-04-25 22:21 | -49.81280 | -71.44673 | 11463 ft | 258 kts | 205° |
| 2026-04-25 22:21 | -49.82881 | -71.45927 | 11209 ft | 257 kts | 205° |
| 2026-04-25 22:22 | -49.84478 | -71.47180 | 10937 ft | 257 kts | 205° |
| 2026-04-25 22:22 | -49.86076 | -71.48434 | 10642 ft | 258 kts | 205° |
| 2026-04-25 22:22 | -49.87660 | -71.49678 | 10350 ft | 258 kts | 205° |
| 2026-04-25 22:22 | -49.89238 | -71.50918 | 10185 ft | 249 kts | 205° |
| 2026-04-25 22:23 | -49.90756 | -71.52109 | 10136 ft | 241 kts | 205° |
| 2026-04-25 22:23 | -49.92253 | -71.53277 | 9816 ft | 242 kts | 204° |
| 2026-04-25 22:23 | -49.93763 | -71.54455 | 9445 ft | 242 kts | 204° |
| 2026-04-25 22:23 | -49.95259 | -71.55624 | 9142 ft | 239 kts | 204° |
| 2026-04-25 22:24 | -49.96734 | -71.56776 | 8853 ft | 236 kts | 204° |
| 2026-04-25 22:24 | -49.98193 | -71.57919 | 8569 ft | 233 kts | 204° |
| 2026-04-25 22:24 | -49.99647 | -71.59056 | 8280 ft | 235 kts | 204° |
| 2026-04-25 22:24 | -50.01115 | -71.60206 | 8002 ft | 236 kts | 205° |
| 2026-04-25 22:25 | -50.02582 | -71.61355 | 7690 ft | 236 kts | 205° |
| 2026-04-25 22:25 | -50.04043 | -71.62501 | 7355 ft | 233 kts | 205° |
| 2026-04-25 22:25 | -50.05484 | -71.63632 | 7116 ft | 230 kts | 205° |
| 2026-04-25 22:25 | -50.06894 | -71.64736 | 6811 ft | 228 kts | 205° |
| 2026-04-25 22:26 | -50.08306 | -71.65846 | 6550 ft | 226 kts | 205° |
| 2026-04-25 22:26 | -50.09702 | -71.66942 | 6333 ft | 224 kts | 205° |
| 2026-04-25 22:26 | -50.11067 | -71.68018 | 6071 ft | 216 kts | 205° |
| 2026-04-25 22:26 | -50.12376 | -71.69051 | 5882 ft | 204 kts | 206° |
| 2026-04-25 22:27 | -50.13623 | -71.70034 | 5705 ft | 198 kts | 206° |
| 2026-04-25 22:27 | -50.14833 | -71.70988 | 5538 ft | 192 kts | 206° |
| 2026-04-25 22:27 | -50.16007 | -71.71914 | 5372 ft | 186 kts | 206° |
| 2026-04-25 22:27 | -50.17187 | -71.72638 | 5198 ft | 180 kts | 196° |
| 2026-04-25 22:28 | -50.18398 | -71.73137 | 5062 ft | 181 kts | 196° |
| 2026-04-25 22:28 | -50.19621 | -71.73640 | 4919 ft | 182 kts | 196° |
| 2026-04-25 22:28 | -50.20847 | -71.74146 | 4784 ft | 182 kts | 196° |
| 2026-04-25 22:28 | -50.22076 | -71.74653 | 4617 ft | 183 kts | 196° |
| 2026-04-25 22:29 | -50.23308 | -71.75163 | 4462 ft | 183 kts | 196° |
| 2026-04-25 22:29 | -50.24541 | -71.75674 | 4299 ft | 183 kts | 196° |
| 2026-04-25 22:29 | -50.25671 | -71.76533 | 4088 ft | 183 kts | 223° |
| 2026-04-25 22:30 | -50.26522 | -71.80243 | 3655 ft | 185 kts | 258° |
| 2026-04-25 22:30 | -50.26659 | -71.82239 | 3406 ft | 184 kts | 259° |
| 2026-04-25 22:30 | -50.26777 | -71.84218 | 3167 ft | 182 kts | 259° |
| 2026-04-25 22:30 | -50.26854 | -71.85519 | 3003 ft | 181 kts | 260° |
| 2026-04-25 22:31 | -50.27005 | -71.88072 | 2682 ft | 172 kts | 260° |
| 2026-04-25 22:31 | -50.27111 | -71.89856 | 2472 ft | 153 kts | 259° |
| 2026-04-25 22:31 | -50.27200 | -71.91414 | 2265 ft | 135 kts | 259° |
| 2026-04-25 22:31 | -50.27284 | -71.92805 | 2111 ft | 129 kts | 258° |
| 2026-04-25 22:32 | -50.27369 | -71.94206 | 1904 ft | 127 kts | 259° |
| 2026-04-25 22:32 | -50.27448 | -71.95573 | 1728 ft | 128 kts | 259° |
| 2026-04-25 22:32 | -50.27531 | -71.96958 | 1492 ft | 128 kts | 258° |
| 2026-04-25 22:32 | -50.27612 | -71.98352 | 1349 ft | 129 kts | 260° |
| 2026-04-25 22:33 | -50.27691 | -71.99732 | 1093 ft | 125 kts | 261° |
| 2026-04-25 22:33 | -50.27771 | -72.01079 | 1004 ft | 125 kts | 260° |
| 2026-04-25 22:33 | -50.27860 | -72.02421 | 811 ft | 123 kts | 261° |
| 2026-04-25 22:33 | -50.27934 | -72.03742 | 658 ft | 118 kts | 262° |
| 2026-04-25 22:34 | -50.27990 | -72.04742 | 647 ft | 57 kts | 264° |
| 2026-04-25 22:34 | -50.28018 | -72.05195 | 645 ft | 42 kts | 265° |
| 2026-04-25 22:34 | -50.28069 | -72.05418 | 645 ft | 13 kts | 188° |
| 2026-04-25 22:34 | -50.28124 | -72.05411 | 645 ft | 9 kts | 175° |
| 2026-04-25 22:35 | -50.28201 | -72.05401 | 644 ft | 12 kts | 178° |
| 2026-04-25 22:35 | -50.28253 | -72.05369 | 644 ft | 4 kts | 112° |
| 2026-04-25 22:35 | -50.28255 | -72.05316 | 644 ft | 6 kts | 90° |
| 2026-04-25 22:35 | -50.28279 | -72.05267 | 644 ft | 7 kts | 164° |
| 2026-04-25 22:36 | -50.28291 | -72.05263 | 644 ft | 0 kts | 181° |
| 2026-04-25 22:36 | -50.28301 | -72.05268 | 644 ft | 1 kts | 210° |
| 2026-04-25 22:36 | -50.28305 | -72.05275 | 644 ft | 2 kts | 227° |
| 2026-04-25 22:36 | -50.28323 | -72.05308 | 644 ft | 5 kts | 231° |
| 2026-04-25 22:37 | -50.28325 | -72.05313 | 644 ft | 0 kts | 233° |